首页
METAR-TAF:

METAR-TAF

机场 :

Rock Springs - Sweetwater County Airport

Rock Springs, 怀俄明州, 美国

纬度: 41-35-39N, 经度: 109-03-55W, 海拔: 2060米

当前天气观测

该预报发布于44分钟前的23:54 UTC
风速21节,风向西,有时为27节阵风
温度 28°C
湿度 19%
气压 1020 hPa
能見度: 16.1公里
少量云层高于11000英尺

METAR: KRKS 122354Z AUTO 26021G27KT 10SM FEW110 28/02 A3012 RMK AO2 PK WND 30040/2328 RAB31E40 SLP103 P0000 60000 T02830022 10317 20278 56006

时间: 18:38 (00:38 UTC)

预报

该预报发布于1小时和18分钟前的23:20 UTC
预报有效从13日的 00点(UTC)到 13日的 24点(UTC)
风速22节,风向西,有时为34节阵风
能見度: 10公里
散云层高于10000英尺
散云层高于20000英尺
从 13日的 0300点(UTC)
风速9节,风向西转西南
能見度: 10公里
少量云层高于11000英尺
散云层高于18000英尺
从 13日的 0800点(UTC)
风速5节,风向南转南东
能見度: 10公里
少量云层高于12000英尺
散云层高于18000英尺
从 13日的 2000点(UTC)
风速12节,风向西转西南
能見度: 10公里
散云层高于10000英尺
多云层高于15000英尺

TAF: KRKS 122320Z 1300/1324 26022G34KT P6SM SCT100 SCT200 FM130300 25009KT P6SM FEW110 SCT180 FM130800 16005KT P6SM FEW120 SCT180 FM132000 25012KT P6SM SCT100 BKN150

超过4000个机场的气象观测和天气预报(METAR&TAF报告)。

可查询的气象台以黄色和红色小点在地图上表示。

将鼠标移到小点上方,可查看气象台名称。

然后点击查看天气观测和预报。

如需切换地图:点击带黑十字的绿色按钮放大地图;点击带横线的绿色按钮缩小地图;或者点击绿色箭头查看邻近地区的地图。


METAR-TAF: